createdAt,value
2023-05-25T00:00:12.346Z,12.24
2023-05-25T00:01:12.318Z,12.34
2023-05-25T00:02:12.368Z,12.31
2023-05-25T00:03:12.341Z,12.19
2023-05-25T00:04:12.395Z,12.23
2023-05-25T00:05:12.220Z,12.23
2023-05-25T00:06:12.220Z,12.14
2023-05-25T00:07:12.184Z,12.17
2023-05-25T00:08:12.156Z,12.17
2023-05-25T00:09:12.130Z,12.14
2023-05-25T00:10:12.144Z,12.20
2023-05-25T00:11:12.082Z,12.23
2023-05-25T00:12:12.059Z,12.21
2023-05-25T00:13:12.041Z,12.23
2023-05-25T00:14:12.018Z,12.23
2023-05-25T00:15:11.993Z,12.13
2023-05-25T00:16:11.970Z,12.21
2023-05-25T00:17:11.966Z,12.13
2023-05-25T00:18:11.926Z,12.23
2023-05-25T00:19:11.897Z,12.20
2023-05-25T00:20:11.953Z,12.14
2023-05-25T00:21:11.879Z,12.17
2023-05-25T00:22:11.918Z,12.14
2023-05-25T00:23:11.800Z,12.10
2023-05-25T00:24:11.789Z,12.07
2023-05-25T00:25:11.753Z,12.05
2023-05-25T00:26:11.734Z,12.09
2023-05-25T00:27:11.724Z,11.98
2023-05-25T00:28:11.724Z,11.91
2023-05-25T00:29:11.660Z,11.83
2023-05-25T00:30:11.645Z,11.88
2023-05-25T00:31:11.644Z,11.78
2023-05-25T00:32:11.600Z,11.78
2023-05-25T00:33:11.577Z,11.78
2023-05-25T00:34:11.551Z,11.67
2023-05-25T00:35:11.534Z,11.75
2023-05-25T00:36:11.499Z,11.72
2023-05-25T00:37:11.479Z,11.72
2023-05-25T00:38:11.481Z,11.58
2023-05-25T00:39:11.444Z,11.60
2023-05-25T00:40:11.410Z,11.55
2023-05-25T00:41:11.387Z,11.67
2023-05-25T00:42:11.366Z,11.61
2023-05-25T00:43:11.352Z,11.60
2023-05-25T00:44:11.320Z,11.60
2023-05-25T00:45:11.340Z,11.58
2023-05-25T00:46:11.332Z,11.52
2023-05-25T00:47:11.247Z,11.52
2023-05-25T00:48:11.271Z,11.54
2023-05-25T00:49:11.197Z,11.47
2023-05-25T00:50:11.182Z,11.47
2023-05-25T00:51:11.161Z,11.49
2023-05-25T00:52:11.127Z,11.43
2023-05-25T00:53:11.117Z,11.36
2023-05-25T00:54:11.104Z,11.36
2023-05-25T00:55:11.073Z,11.25
2023-05-25T00:56:11.070Z,11.25
2023-05-25T00:57:11.020Z,11.17
2023-05-25T00:58:10.994Z,11.11
2023-05-25T00:59:10.965Z,11.00
2023-05-25T01:00:10.941Z,10.92
2023-05-25T01:01:10.921Z,10.96
2023-05-25T01:02:11.097Z,10.89
2023-05-25T01:03:11.266Z,10.73
2023-05-25T01:04:10.877Z,10.70
2023-05-25T01:05:10.828Z,10.61
2023-05-25T01:06:10.801Z,10.61
2023-05-25T01:07:10.777Z,10.63
2023-05-25T01:08:10.753Z,10.56
2023-05-25T01:09:10.739Z,10.61
2023-05-25T01:10:10.732Z,10.56
2023-05-25T01:11:10.684Z,10.48
2023-05-25T01:12:10.663Z,10.51
2023-05-25T01:13:10.637Z,10.59
2023-05-25T01:14:10.612Z,10.55
2023-05-25T01:15:10.593Z,10.52
2023-05-25T01:16:10.571Z,10.55
2023-05-25T01:17:10.548Z,10.45
2023-05-25T01:18:10.517Z,10.47
2023-05-25T01:19:10.502Z,10.59
2023-05-25T01:20:11.952Z,10.53
2023-05-25T01:21:10.450Z,10.52
2023-05-25T01:22:10.441Z,10.45
2023-05-25T01:23:10.402Z,10.45
2023-05-25T01:24:10.377Z,10.36
2023-05-25T01:25:10.355Z,10.40
2023-05-25T01:26:10.351Z,10.47
2023-05-25T01:27:10.304Z,10.47
2023-05-25T01:28:10.282Z,10.48
2023-05-25T01:29:10.276Z,10.33
2023-05-25T01:30:10.233Z,10.41
2023-05-25T01:31:10.212Z,10.40
2023-05-25T01:32:10.357Z,10.41
2023-05-25T01:33:10.237Z,10.53
2023-05-25T01:34:10.137Z,10.52
2023-05-25T01:35:10.132Z,10.48
2023-05-25T01:36:10.092Z,10.55
2023-05-25T01:37:10.075Z,10.56
2023-05-25T01:38:10.039Z,10.55
2023-05-25T01:39:10.020Z,10.47
2023-05-25T01:40:09.998Z,10.48
2023-05-25T01:41:09.973Z,10.45
2023-05-25T01:42:09.978Z,10.42
2023-05-25T01:43:09.926Z,10.48
2023-05-25T01:44:09.899Z,10.45
2023-05-25T01:45:09.877Z,10.40
2023-05-25T01:46:09.922Z,10.40
2023-05-25T01:47:09.833Z,10.36
2023-05-25T01:48:09.817Z,10.30
2023-05-25T01:49:09.800Z,10.32
2023-05-25T01:50:09.752Z,10.32
2023-05-25T01:51:09.742Z,10.32
2023-05-25T01:52:09.753Z,10.25
2023-05-25T01:53:09.687Z,10.32
2023-05-25T01:54:09.714Z,10.32
2023-05-25T01:55:09.635Z,10.40
2023-05-25T01:56:09.621Z,10.48
2023-05-25T01:57:09.586Z,10.42
2023-05-25T01:58:09.602Z,10.40
2023-05-25T01:59:09.561Z,10.47
2023-05-25T02:00:09.518Z,10.42
2023-05-25T02:01:09.564Z,10.40
2023-05-25T02:02:09.471Z,10.42
2023-05-25T02:03:09.461Z,10.23
2023-05-25T02:04:09.488Z,10.11
2023-05-25T02:05:09.406Z,10.15
2023-05-25T02:06:09.373Z,10.11
2023-05-25T02:07:09.347Z,10.02
2023-05-25T02:08:09.319Z,9.94
2023-05-25T02:09:09.303Z,9.93
2023-05-25T02:10:09.273Z,10.02
2023-05-25T02:11:09.256Z,10.02
2023-05-25T02:12:09.234Z,10.04
2023-05-25T02:13:09.219Z,10.05
2023-05-25T02:14:09.199Z,10.14
2023-05-25T02:15:09.167Z,10.15
2023-05-25T02:16:09.153Z,10.27
2023-05-25T02:17:09.126Z,10.26
2023-05-25T02:18:09.094Z,10.26
2023-05-25T02:19:09.063Z,10.33
2023-05-25T02:20:09.058Z,10.38
2023-05-25T02:21:09.023Z,10.36
2023-05-25T02:22:08.993Z,10.40
2023-05-25T02:23:08.972Z,10.41
2023-05-25T02:24:08.946Z,10.38
2023-05-25T02:25:08.928Z,10.44
2023-05-25T02:26:08.902Z,10.45
2023-05-25T02:27:08.877Z,10.47
2023-05-25T02:28:08.859Z,10.48
2023-05-25T02:29:08.828Z,10.38
2023-05-25T02:30:08.844Z,10.40
2023-05-25T02:31:08.870Z,10.34
2023-05-25T02:32:08.751Z,10.15
2023-05-25T02:33:08.737Z,10.07
2023-05-25T02:34:08.707Z,9.97
2023-05-25T02:35:08.685Z,9.89
2023-05-25T02:36:08.672Z,9.72
2023-05-25T02:37:08.635Z,9.54
2023-05-25T02:38:08.622Z,9.54
2023-05-25T02:39:08.590Z,9.51
2023-05-25T02:40:08.576Z,9.46
2023-05-25T02:41:08.536Z,9.46
2023-05-25T02:42:08.516Z,9.47
2023-05-25T02:43:08.493Z,9.46
2023-05-25T02:44:08.480Z,9.46
2023-05-25T02:45:08.439Z,9.48
2023-05-25T02:46:08.481Z,9.60
2023-05-25T02:47:08.628Z,9.58
2023-05-25T02:48:08.388Z,9.56
2023-05-25T02:49:08.347Z,9.57
2023-05-25T02:50:08.319Z,9.65
2023-05-25T02:51:08.303Z,9.71
2023-05-25T02:52:08.280Z,9.83
2023-05-25T02:53:08.258Z,9.79
2023-05-25T02:54:08.219Z,9.81
2023-05-25T02:55:08.205Z,9.83
2023-05-25T02:56:08.171Z,9.86
2023-05-25T02:57:08.152Z,9.79
2023-05-25T02:58:08.121Z,9.86
2023-05-25T02:59:08.100Z,9.81
2023-05-25T03:00:08.087Z,9.78
2023-05-25T03:01:08.170Z,9.90
2023-05-25T03:02:08.152Z,9.94
2023-05-25T03:03:08.110Z,10.01
2023-05-25T03:04:08.062Z,10.09
2023-05-25T03:05:07.962Z,10.11
2023-05-25T03:06:07.939Z,10.14
2023-05-25T03:07:07.918Z,10.04
2023-05-25T03:08:07.881Z,9.96
2023-05-25T03:09:07.875Z,9.97
2023-05-25T03:10:07.833Z,9.97
2023-05-25T03:11:07.816Z,9.96
2023-05-25T03:12:07.822Z,9.89
2023-05-25T03:13:07.767Z,9.81
2023-05-25T03:14:07.748Z,9.81
2023-05-25T03:15:07.718Z,9.78
2023-05-25T03:16:07.770Z,9.71
2023-05-25T03:17:07.692Z,9.75
2023-05-25T03:18:07.675Z,9.71
2023-05-25T03:19:07.640Z,9.68
2023-05-25T03:20:07.674Z,9.74
2023-05-25T03:21:07.585Z,9.75
2023-05-25T03:22:07.558Z,9.69
2023-05-25T03:23:07.528Z,9.61
2023-05-25T03:24:07.521Z,9.75
2023-05-25T03:25:07.479Z,9.68
2023-05-25T03:26:07.451Z,9.69
2023-05-25T03:27:07.435Z,9.68
2023-05-25T03:28:07.400Z,9.74
2023-05-25T03:29:07.380Z,9.72
2023-05-25T03:30:07.368Z,9.69
2023-05-25T03:31:07.333Z,9.66
2023-05-25T03:32:07.351Z,9.66
2023-05-25T03:33:07.330Z,9.83
2023-05-25T03:34:07.280Z,9.74
2023-05-25T03:35:07.237Z,9.86
2023-05-25T03:36:07.212Z,9.83
2023-05-25T03:37:07.193Z,9.81
2023-05-25T03:38:07.165Z,9.84
2023-05-25T03:39:07.185Z,9.84
2023-05-25T03:40:07.119Z,9.84
2023-05-25T03:41:07.091Z,9.83
2023-05-25T03:42:07.067Z,9.84
2023-05-25T03:43:07.047Z,9.83
2023-05-25T03:44:07.018Z,9.81
2023-05-25T03:45:06.993Z,9.79
2023-05-25T03:46:07.031Z,9.79
2023-05-25T03:47:06.947Z,9.83
2023-05-25T03:48:06.923Z,9.86
2023-05-25T03:49:06.904Z,9.84
2023-05-25T03:50:06.900Z,9.83
2023-05-25T03:51:06.850Z,9.90
2023-05-25T03:52:06.829Z,9.90
2023-05-25T03:53:06.806Z,9.99
2023-05-25T03:54:06.776Z,9.99
2023-05-25T03:55:06.750Z,10.04
2023-05-25T03:56:06.725Z,10.14
2023-05-25T03:57:06.704Z,10.07
2023-05-25T03:58:06.682Z,10.12
2023-05-25T03:59:06.657Z,10.17
2023-05-25T04:00:06.630Z,10.14
2023-05-25T04:01:06.606Z,10.11
2023-05-25T04:02:06.686Z,10.14
2023-05-25T04:03:06.698Z,10.18
2023-05-25T04:04:06.646Z,10.27
2023-05-25T04:05:06.510Z,10.30
2023-05-25T04:06:06.507Z,10.25
2023-05-25T04:07:06.459Z,10.32
2023-05-25T04:08:06.452Z,10.34
2023-05-25T04:09:06.411Z,10.41
2023-05-25T04:10:06.417Z,10.40
2023-05-25T04:11:06.361Z,10.36
2023-05-25T04:12:06.343Z,10.40
2023-05-25T04:13:06.317Z,10.40
2023-05-25T04:14:06.299Z,10.40
2023-05-25T04:15:06.271Z,10.40
2023-05-25T04:16:06.275Z,10.33
2023-05-25T04:17:06.214Z,10.26
2023-05-25T04:18:06.233Z,10.20
2023-05-25T04:19:06.174Z,10.05
2023-05-25T04:20:06.177Z,10.05
2023-05-25T04:21:06.122Z,10.08
2023-05-25T04:22:06.111Z,10.09
2023-05-25T04:23:06.089Z,9.91
2023-05-25T04:24:06.070Z,9.91
2023-05-25T04:25:06.022Z,9.86
2023-05-25T04:26:06.014Z,9.81
2023-05-25T04:27:05.973Z,9.96
2023-05-25T04:28:05.958Z,9.84
2023-05-25T04:29:05.927Z,9.86
2023-05-25T04:30:05.903Z,9.89
2023-05-25T04:31:05.901Z,9.89
2023-05-25T04:32:05.913Z,9.96
2023-05-25T04:33:05.866Z,9.97
2023-05-25T04:34:05.815Z,9.94
2023-05-25T04:35:05.786Z,9.99
2023-05-25T04:36:05.763Z,10.02
2023-05-25T04:37:05.915Z,10.04
2023-05-25T04:38:05.741Z,10.01
2023-05-25T04:39:05.685Z,10.04
2023-05-25T04:40:05.660Z,10.05
2023-05-25T04:41:05.644Z,10.08
2023-05-25T04:42:05.612Z,10.08
2023-05-25T04:43:05.590Z,10.12
2023-05-25T04:44:09.611Z,10.18
2023-05-25T04:45:05.542Z,10.18
2023-05-25T04:46:05.534Z,10.18
2023-05-25T04:47:05.497Z,10.14
2023-05-25T04:48:05.503Z,10.17
2023-05-25T04:49:05.442Z,10.20
2023-05-25T04:50:05.416Z,10.17
2023-05-25T04:51:05.407Z,10.20
2023-05-25T04:52:05.388Z,10.14
2023-05-25T04:53:05.415Z,10.17
2023-05-25T04:54:05.353Z,10.17
2023-05-25T04:55:05.298Z,10.07
2023-05-25T04:56:05.269Z,10.12
2023-05-25T04:57:05.254Z,10.17
2023-05-25T04:58:05.221Z,10.23
2023-05-25T04:59:05.192Z,10.22
2023-05-25T05:00:05.162Z,10.26
2023-05-25T05:01:05.194Z,10.23
2023-05-25T05:02:05.119Z,10.40
2023-05-25T05:03:05.159Z,10.40
2023-05-25T05:04:05.160Z,10.48
2023-05-25T05:05:05.049Z,10.36
2023-05-25T05:06:05.024Z,10.44
2023-05-25T05:07:04.997Z,10.53
2023-05-25T05:08:04.979Z,10.42
2023-05-25T05:09:04.953Z,10.45
2023-05-25T05:10:04.950Z,10.51
2023-05-25T05:11:04.901Z,10.52
2023-05-25T05:12:04.888Z,10.48
2023-05-25T05:13:04.856Z,10.48
2023-05-25T05:14:04.842Z,10.53
2023-05-25T05:15:04.806Z,10.55
2023-05-25T05:16:04.802Z,10.53
2023-05-25T05:17:04.842Z,10.60
2023-05-25T05:18:04.796Z,10.64
2023-05-25T05:19:04.720Z,10.64
2023-05-25T05:20:04.702Z,10.68
2023-05-25T05:21:04.680Z,10.53
2023-05-25T05:22:04.650Z,10.60
2023-05-25T05:23:04.619Z,10.61
2023-05-25T05:24:04.591Z,10.67
2023-05-25T05:25:04.564Z,10.68
2023-05-25T05:26:04.562Z,10.67
2023-05-25T05:27:04.941Z,10.82
2023-05-25T05:28:04.508Z,10.84
2023-05-25T05:29:04.476Z,10.84
2023-05-25T05:30:04.447Z,10.89
2023-05-25T05:31:04.442Z,10.88
2023-05-25T05:32:04.404Z,10.91
2023-05-25T05:33:04.427Z,10.89
2023-05-25T05:34:04.386Z,10.96
2023-05-25T05:35:04.327Z,10.99
2023-05-25T05:36:04.298Z,11.04
2023-05-25T05:37:04.271Z,10.99
2023-05-25T05:38:04.259Z,11.07
2023-05-25T05:39:04.226Z,11.07
2023-05-25T05:40:04.208Z,11.10
2023-05-25T05:41:04.180Z,11.10
2023-05-25T05:42:04.182Z,11.11
2023-05-25T05:43:04.130Z,11.19
2023-05-25T05:44:04.101Z,11.15
2023-05-25T05:45:04.092Z,11.19
2023-05-25T05:46:04.124Z,11.21
2023-05-25T05:47:04.036Z,11.24
2023-05-25T05:48:04.038Z,11.35
2023-05-25T05:49:03.978Z,11.32
2023-05-25T05:50:03.967Z,11.32
2023-05-25T05:51:03.933Z,11.29
2023-05-25T05:52:03.913Z,11.29
2023-05-25T05:53:03.883Z,11.36
2023-05-25T05:54:03.866Z,11.37
2023-05-25T05:55:03.859Z,11.32
2023-05-25T05:56:03.859Z,11.35
2023-05-25T05:57:03.785Z,11.36
2023-05-25T05:58:03.840Z,11.27
2023-05-25T05:59:03.739Z,11.36
2023-05-25T06:00:03.719Z,11.27
2023-05-25T06:01:03.698Z,11.33
2023-05-25T06:02:03.736Z,11.36
2023-05-25T06:03:03.712Z,11.35
2023-05-25T06:04:03.627Z,11.42
2023-05-25T06:05:03.633Z,11.51
2023-05-25T06:06:03.631Z,11.52
2023-05-25T06:07:03.554Z,11.60
2023-05-25T06:08:05.668Z,11.64
2023-05-25T06:09:03.501Z,11.73
2023-05-25T06:10:03.488Z,11.75
2023-05-25T06:11:03.448Z,11.78
2023-05-25T06:12:03.481Z,11.86
2023-05-25T06:13:03.409Z,11.90
2023-05-25T06:14:03.413Z,11.88
2023-05-25T06:15:03.351Z,11.96
2023-05-25T06:16:03.387Z,12.02
2023-05-25T06:17:03.396Z,11.88
2023-05-25T06:18:03.310Z,11.88
2023-05-25T06:19:03.255Z,11.98
2023-05-25T06:20:03.247Z,11.99
2023-05-25T06:21:03.212Z,11.95
2023-05-25T06:22:03.182Z,12.05
2023-05-25T06:23:03.160Z,12.12
2023-05-25T06:24:03.148Z,12.07
2023-05-25T06:25:03.127Z,12.10
2023-05-25T06:26:03.094Z,12.09
2023-05-25T06:27:03.065Z,12.14
2023-05-25T06:28:03.046Z,12.14
2023-05-25T06:29:03.016Z,12.13
2023-05-25T06:30:03.097Z,12.14
2023-05-25T06:31:02.979Z,12.16
2023-05-25T06:32:03.047Z,12.14
2023-05-25T06:33:02.945Z,12.12
2023-05-25T06:34:02.900Z,12.23
2023-05-25T06:35:02.898Z,12.23
2023-05-25T06:36:02.871Z,12.28
2023-05-25T06:37:02.826Z,12.23
2023-05-25T06:38:02.803Z,12.31
2023-05-25T06:39:02.781Z,12.37
2023-05-25T06:40:02.766Z,12.21
2023-05-25T06:41:02.763Z,12.29
2023-05-25T06:42:02.763Z,12.31
2023-05-25T06:43:02.694Z,12.31
2023-05-25T06:44:02.671Z,12.31
2023-05-25T06:45:02.635Z,12.20
2023-05-25T06:46:02.898Z,12.24
2023-05-25T06:47:02.590Z,12.16
2023-05-25T06:48:02.609Z,12.16
2023-05-25T06:49:02.540Z,12.23
2023-05-25T06:50:02.522Z,12.17
2023-05-25T06:51:02.501Z,12.14
2023-05-25T06:52:02.477Z,12.17
2023-05-25T06:53:02.451Z,12.17
2023-05-25T06:54:02.466Z,12.20
2023-05-25T06:55:02.407Z,12.19
2023-05-25T06:56:02.392Z,12.20
2023-05-25T06:57:02.358Z,12.28
2023-05-25T06:58:02.327Z,12.29
2023-05-25T06:59:02.313Z,12.35
2023-05-25T07:00:02.293Z,12.56
2023-05-25T07:01:02.280Z,12.52
2023-05-25T07:02:02.263Z,12.52
2023-05-25T07:03:02.255Z,12.52
2023-05-25T07:04:02.197Z,12.50
2023-05-25T07:05:02.212Z,12.54
2023-05-25T07:06:02.160Z,12.57
2023-05-25T07:07:02.132Z,12.70
2023-05-25T07:08:02.107Z,12.70
2023-05-25T07:09:02.101Z,12.78
2023-05-25T07:10:02.049Z,12.72
2023-05-25T07:11:02.047Z,12.70
2023-05-25T07:12:02.010Z,12.71
2023-05-25T07:13:01.986Z,12.71
2023-05-25T07:14:01.958Z,12.82
2023-05-25T07:15:01.947Z,12.74
2023-05-25T07:16:01.933Z,12.74
2023-05-25T07:17:01.896Z,12.71
2023-05-25T07:18:01.914Z,12.70
2023-05-25T07:19:01.845Z,12.71
2023-05-25T07:20:01.851Z,12.74
2023-05-25T07:21:01.795Z,12.72
2023-05-25T07:22:01.802Z,12.72
2023-05-25T07:23:01.749Z,12.65
2023-05-25T07:24:01.739Z,12.67
2023-05-25T07:25:01.704Z,12.68
2023-05-25T07:26:03.618Z,12.75
2023-05-25T07:27:01.654Z,12.77
2023-05-25T07:28:01.654Z,12.72
2023-05-25T07:29:01.609Z,12.68
2023-05-25T07:30:01.592Z,12.72
2023-05-25T07:31:01.658Z,12.75
2023-05-25T07:32:01.549Z,12.77
2023-05-25T07:33:01.582Z,12.78
2023-05-25T07:34:01.604Z,12.68
2023-05-25T07:35:01.479Z,12.74
2023-05-25T07:36:01.465Z,12.74
2023-05-25T07:37:01.423Z,12.71
2023-05-25T07:38:01.404Z,12.74
2023-05-25T07:39:01.396Z,12.79
2023-05-25T07:40:01.356Z,12.77
2023-05-25T07:41:01.329Z,12.75
2023-05-25T07:42:01.313Z,12.72
2023-05-25T07:43:01.292Z,12.74
2023-05-25T07:44:01.294Z,12.72
2023-05-25T07:45:01.291Z,12.89
2023-05-25T07:46:01.286Z,12.85
2023-05-25T07:47:01.435Z,12.95
2023-05-25T07:48:01.313Z,12.85
2023-05-25T07:49:01.145Z,12.78
2023-05-25T07:50:01.259Z,12.78
2023-05-25T07:51:01.098Z,12.82
2023-05-25T07:52:01.104Z,12.75
2023-05-25T07:53:01.051Z,12.78
2023-05-25T07:54:01.035Z,12.85
2023-05-25T07:55:01.047Z,12.92
2023-05-25T07:56:01.006Z,12.96
2023-05-25T07:57:00.959Z,12.93
2023-05-25T07:58:00.941Z,12.93
2023-05-25T07:59:00.917Z,12.93
2023-05-25T08:00:00.905Z,12.90
2023-05-25T08:01:00.880Z,12.97
2023-05-25T08:02:00.871Z,12.90
2023-05-25T08:03:01.002Z,12.86
2023-05-25T08:04:00.900Z,12.90
2023-05-25T08:05:00.812Z,12.79
2023-05-25T08:06:00.771Z,12.90
2023-05-25T08:07:00.727Z,12.93
2023-05-25T08:08:00.703Z,12.95
2023-05-25T08:09:00.678Z,12.92
2023-05-25T08:10:00.669Z,12.96
2023-05-25T08:11:00.669Z,12.96
2023-05-25T08:12:24.204Z,13.03
2023-05-25T08:13:00.588Z,12.90
2023-05-25T08:14:00.719Z,12.87
2023-05-25T08:15:00.605Z,12.93
2023-05-25T08:16:00.515Z,12.96
2023-05-25T08:17:00.502Z,12.96
2023-05-25T08:18:00.527Z,13.00
2023-05-25T08:19:00.439Z,13.01
2023-05-25T08:20:00.461Z,13.07
2023-05-25T08:21:00.392Z,13.08
2023-05-25T08:22:00.395Z,13.05
2023-05-25T08:23:00.348Z,13.04
2023-05-25T08:24:00.325Z,13.05
2023-05-25T08:25:00.310Z,12.92
2023-05-25T08:26:01.321Z,12.96
2023-05-25T08:27:00.253Z,13.04
2023-05-25T08:28:00.232Z,13.10
2023-05-25T08:29:00.213Z,13.20
2023-05-25T08:30:00.183Z,13.25
2023-05-25T08:31:00.211Z,13.22
2023-05-25T08:32:00.157Z,13.26
2023-05-25T08:33:00.260Z,13.15
2023-05-25T08:34:00.228Z,13.12
2023-05-25T08:35:00.068Z,13.15
2023-05-25T08:36:00.050Z,13.25
2023-05-25T08:37:00.019Z,13.23
2023-05-25T08:38:00.015Z,13.29
2023-05-25T08:38:59.974Z,13.29
2023-05-25T08:39:59.971Z,13.23
2023-05-25T08:40:59.922Z,13.32
2023-05-25T08:41:59.910Z,13.38
2023-05-25T08:42:59.882Z,13.41
2023-05-25T08:43:59.857Z,13.42
2023-05-25T08:44:59.839Z,13.46
2023-05-25T08:45:59.809Z,13.44
2023-05-25T08:46:59.803Z,13.38
2023-05-25T08:47:59.841Z,13.49
2023-05-25T08:48:59.760Z,13.48
2023-05-25T08:49:59.726Z,13.54
2023-05-25T08:50:59.693Z,13.60
2023-05-25T08:51:59.675Z,13.57
2023-05-25T08:52:59.652Z,13.62
2023-05-25T08:53:59.646Z,13.59
2023-05-25T08:54:59.603Z,13.45
2023-05-25T08:55:59.574Z,13.42
2023-05-25T08:56:59.548Z,13.42
2023-05-25T08:57:59.527Z,13.45
2023-05-25T08:58:59.508Z,13.46
2023-05-25T08:59:59.492Z,13.39
2023-05-25T09:00:59.456Z,13.46
2023-05-25T09:01:59.496Z,13.45
2023-05-25T09:02:59.544Z,13.45
2023-05-25T09:03:59.412Z,13.45
2023-05-25T09:04:59.367Z,13.60
2023-05-25T09:05:59.349Z,13.59
2023-05-25T09:07:09.444Z,13.64
2023-05-25T09:07:59.299Z,13.66
2023-05-25T09:08:59.273Z,13.82
2023-05-25T09:09:59.278Z,13.96
2023-05-25T09:10:59.229Z,14.03
2023-05-25T09:11:59.208Z,14.09
2023-05-25T09:13:06.591Z,14.04
2023-05-25T09:13:59.176Z,14.20
2023-05-25T09:14:59.135Z,14.15
2023-05-25T09:15:59.136Z,14.12
2023-05-25T09:16:59.144Z,14.12
2023-05-25T09:17:59.095Z,13.99
2023-05-25T09:18:59.047Z,13.96
2023-05-25T09:19:59.037Z,13.84
2023-05-25T09:20:59.062Z,13.87
2023-05-25T09:22:13.350Z,13.85
2023-05-25T09:22:58.957Z,13.79
2023-05-25T09:23:58.930Z,13.81
2023-05-25T09:24:58.923Z,13.81
2023-05-25T09:25:58.905Z,13.82
2023-05-25T09:26:58.875Z,13.77
2023-05-25T09:28:01.320Z,13.88
2023-05-25T09:28:58.823Z,13.82
2023-05-25T09:29:58.800Z,13.75
2023-05-25T09:30:58.778Z,13.82
2023-05-25T09:31:58.771Z,13.69
2023-05-25T09:32:58.770Z,13.70
2023-05-25T09:33:58.706Z,13.71
2023-05-25T09:34:58.687Z,13.81
2023-05-25T09:35:58.660Z,13.79
2023-05-25T09:36:58.827Z,13.78
2023-05-25T09:37:58.763Z,13.82
2023-05-25T09:38:59.004Z,13.87
2023-05-25T09:39:58.571Z,13.92
2023-05-25T09:40:58.557Z,13.77
2023-05-25T09:41:58.554Z,13.88
2023-05-25T09:42:58.506Z,13.85
2023-05-25T09:44:10.507Z,13.88
2023-05-25T09:44:58.463Z,13.92
2023-05-25T09:45:58.489Z,13.91
2023-05-25T09:46:58.416Z,13.95
2023-05-25T09:47:58.462Z,14.06
2023-05-25T09:48:58.366Z,13.99
2023-05-25T09:49:58.334Z,14.07
2023-05-25T09:50:58.322Z,14.07
2023-05-25T09:51:58.299Z,14.10
2023-05-25T09:52:58.277Z,14.09
2023-05-25T09:53:58.249Z,14.12
2023-05-25T09:54:58.232Z,14.14
2023-05-25T09:55:58.205Z,14.21
2023-05-25T09:56:58.187Z,14.15
2023-05-25T09:57:58.183Z,14.24
2023-05-25T09:58:58.131Z,14.22
2023-05-25T09:59:58.107Z,14.06
2023-05-25T10:00:58.122Z,14.18
2023-05-25T10:01:58.146Z,14.12
2023-05-25T10:02:58.136Z,14.14
2023-05-25T10:04:04.202Z,14.09
2023-05-25T10:04:58.022Z,14.15
2023-05-25T10:05:57.978Z,14.07
2023-05-25T10:06:57.950Z,14.03
2023-05-25T10:07:57.956Z,14.09
2023-05-25T10:08:57.910Z,14.00
2023-05-25T10:09:57.893Z,13.92
2023-05-25T10:10:57.856Z,13.92
2023-05-25T10:11:57.834Z,13.89
2023-05-25T10:12:57.811Z,14.03
2023-05-25T10:13:57.939Z,14.03
2023-05-25T10:14:57.771Z,14.12
2023-05-25T10:15:57.763Z,14.17
2023-05-25T10:16:57.718Z,14.15
2023-05-25T10:17:57.733Z,14.24
2023-05-25T10:18:57.673Z,14.27
2023-05-25T10:19:57.683Z,14.18
2023-05-25T10:20:57.832Z,14.25
2023-05-25T10:21:57.600Z,14.21
2023-05-25T10:22:57.586Z,14.32
2023-05-25T10:23:57.563Z,14.21
2023-05-25T10:24:57.529Z,14.33
2023-05-25T10:25:57.509Z,14.35
2023-05-25T10:26:57.491Z,14.36
2023-05-25T10:27:58.116Z,14.32
2023-05-25T10:28:57.448Z,14.37
2023-05-25T10:29:57.516Z,14.36
2023-05-25T10:30:57.407Z,14.46
2023-05-25T10:31:57.515Z,14.52
2023-05-25T10:32:57.471Z,14.40
2023-05-25T10:33:57.322Z,14.51
2023-05-25T10:34:57.299Z,14.52
2023-05-25T10:36:09.186Z,14.52
2023-05-25T10:36:57.258Z,14.52
2023-05-25T10:37:57.230Z,14.47
2023-05-25T10:38:57.212Z,14.64
2023-05-25T10:39:57.199Z,14.65
2023-05-25T10:40:57.166Z,14.57
2023-05-25T10:41:57.135Z,14.57
2023-05-25T10:42:57.129Z,14.55
2023-05-25T10:43:57.092Z,14.64
2023-05-25T10:44:57.073Z,14.68
2023-05-25T10:45:57.566Z,14.61
2023-05-25T10:46:57.110Z,14.70
2023-05-25T10:47:57.074Z,14.69
2023-05-25T10:48:56.976Z,14.75
2023-05-25T10:49:56.958Z,14.78
2023-05-25T10:50:56.965Z,14.72
2023-05-25T10:51:56.916Z,14.86
2023-05-25T10:52:56.901Z,14.84
2023-05-25T10:53:56.865Z,14.91
2023-05-25T10:54:56.844Z,15.02
2023-05-25T10:55:56.822Z,15.02
2023-05-25T10:56:56.800Z,14.92
2023-05-25T10:57:56.774Z,14.91
2023-05-25T10:58:56.766Z,14.88
2023-05-25T10:59:56.730Z,14.83
2023-05-25T11:00:56.778Z,14.89
2023-05-25T11:01:56.738Z,15.02
2023-05-25T11:02:56.708Z,15.11
2023-05-25T11:03:56.720Z,15.16
2023-05-25T11:04:56.622Z,15.20
2023-05-25T11:05:56.596Z,15.09
2023-05-25T11:06:56.584Z,14.98
2023-05-25T11:07:56.558Z,15.10
2023-05-25T11:08:56.529Z,15.03
2023-05-25T11:09:56.518Z,15.07
2023-05-25T11:10:56.518Z,15.19
2023-05-25T11:11:56.468Z,15.09
2023-05-25T11:12:56.444Z,15.13
2023-05-25T11:13:56.415Z,15.16
2023-05-25T11:14:56.401Z,15.10
2023-05-25T11:15:56.371Z,15.17
2023-05-25T11:16:56.379Z,14.98
2023-05-25T11:17:56.402Z,15.11
2023-05-25T11:18:56.327Z,15.28
2023-05-25T11:19:56.437Z,15.36
2023-05-25T11:20:56.287Z,15.38
2023-05-25T11:21:56.244Z,15.32
2023-05-25T11:22:56.219Z,15.64
2023-05-25T11:23:56.247Z,15.62
2023-05-25T11:24:56.182Z,15.75
2023-05-25T11:25:56.146Z,15.80
2023-05-25T11:26:56.130Z,15.82
2023-05-25T11:27:56.107Z,15.82
2023-05-25T11:28:56.082Z,15.68
2023-05-25T11:29:56.066Z,15.60
2023-05-25T11:30:56.056Z,15.72
2023-05-25T11:31:56.014Z,15.68
2023-05-25T11:32:56.034Z,15.72
2023-05-25T11:33:55.992Z,15.75
2023-05-25T11:34:55.951Z,15.78
2023-05-25T11:35:55.926Z,15.80
2023-05-25T11:36:55.916Z,15.71
2023-05-25T11:37:55.878Z,15.53
2023-05-25T11:39:04.735Z,15.51
2023-05-25T11:39:55.844Z,15.54
2023-05-25T11:40:55.815Z,15.57
2023-05-25T11:41:55.787Z,15.69
2023-05-25T11:42:55.783Z,15.69
2023-05-25T11:43:55.741Z,15.72
2023-05-25T11:44:55.729Z,15.84
2023-05-25T11:45:55.877Z,15.97
2023-05-25T11:46:55.789Z,16.08
2023-05-25T11:47:55.710Z,16.09
2023-05-25T11:48:55.644Z,16.31
2023-05-25T11:49:55.705Z,16.25
2023-05-25T11:50:55.596Z,16.43
2023-05-25T11:51:55.585Z,16.64
2023-05-25T11:52:55.552Z,16.61
2023-05-25T11:53:55.555Z,16.58
2023-05-25T11:54:55.512Z,16.56
2023-05-25T11:56:03.802Z,16.70
2023-05-25T11:56:55.464Z,16.68
2023-05-25T11:57:55.450Z,16.67
2023-05-25T11:58:55.429Z,16.66
2023-05-25T11:59:55.393Z,16.43
2023-05-25T12:00:55.371Z,16.39
2023-05-25T12:01:55.349Z,16.46
2023-05-25T12:02:55.390Z,16.48
2023-05-25T12:03:56.592Z,16.46
2023-05-25T12:04:55.413Z,16.33
2023-05-25T12:05:55.416Z,16.20
2023-05-25T12:06:55.243Z,16.20
2023-05-25T12:07:55.220Z,16.27
2023-05-25T12:08:55.247Z,16.25
2023-05-25T12:09:55.176Z,16.49
2023-05-25T12:10:55.152Z,16.60
2023-05-25T12:11:55.129Z,16.76
2023-05-25T12:12:55.112Z,16.66
2023-05-25T12:13:55.084Z,16.49
2023-05-25T12:14:56.059Z,16.46
2023-05-25T12:15:55.042Z,16.57
2023-05-25T12:16:55.119Z,16.60
2023-05-25T12:17:55.102Z,16.66
2023-05-25T12:18:54.984Z,16.68
2023-05-25T12:19:55.022Z,16.67
2023-05-25T12:20:54.964Z,16.58
2023-05-25T12:21:54.934Z,16.67
2023-05-25T12:22:54.893Z,16.75
2023-05-25T12:23:54.875Z,16.63
2023-05-25T12:24:54.846Z,16.38
2023-05-25T12:25:55.134Z,16.39
2023-05-25T12:26:54.804Z,16.38
2023-05-25T12:27:54.786Z,16.39
2023-05-25T12:28:54.767Z,16.33
2023-05-25T12:29:54.747Z,16.39
2023-05-25T12:30:54.784Z,16.48
2023-05-25T12:31:54.697Z,16.63
2023-05-25T12:32:54.768Z,16.78
2023-05-25T12:33:54.651Z,17.03
2023-05-25T12:34:54.627Z,17.01
2023-05-25T12:35:54.607Z,17.11
2023-05-25T12:36:54.583Z,17.22
2023-05-25T12:37:54.586Z,17.26
2023-05-25T12:38:54.556Z,17.31
2023-05-25T12:39:55.585Z,17.74
2023-05-25T12:40:54.503Z,17.86
2023-05-25T12:41:55.198Z,18.10
2023-05-25T12:42:54.478Z,17.97
2023-05-25T12:43:54.434Z,17.77
2023-05-25T12:44:54.421Z,17.66
2023-05-25T12:45:54.391Z,17.33
2023-05-25T12:46:54.430Z,17.23
2023-05-25T12:47:54.367Z,17.22
2023-05-25T12:48:54.355Z,17.19
2023-05-25T12:49:54.304Z,17.26
2023-05-25T12:50:54.286Z,17.51
2023-05-25T12:51:54.265Z,17.46
2023-05-25T12:52:54.246Z,17.68
2023-05-25T12:53:54.253Z,17.58
2023-05-25T12:54:54.209Z,17.44